Main page
METAR-TAF:

METAR-TAF

Airports :

Hamburg Finkenwerder Airport

Finkenwerder, Germany

latitude: 53-32N, longitude: 009-50E, elevation: 5 m

Current weather observation

The report was made 21 minutes ago, at 16:20 UTC
Wind 11 kt from the West/Northwest
Temperature 18°C
Humidity 52%
Pressure 1031 hPa
Visibility 10 km or more
no clouds below 1500 m and no cumulonimbus

METAR: EDHI 281620Z 29011KT CAVOK 18/08 Q1031

Time: 18:41 (16:41 UTC)

Forecast

The report was made 2 hours and 41 minutes ago, at 14:00 UTC
Forecast valid from 28 at 15 UTC to 28 at 21 UTC
Wind 9 kt from the North/Northwest
Visibility 10 km or more
no clouds below 1500 m and no cumulonimbus
Becoming
from 28 at 19 UTC to 28 at 21 UTC
Wind 4 kt from the North/Northwest

TAF: EDHI 281400Z 2815/2821 33009KT CAVOK BECMG 2819/2821 33004KT

Weather observations and forecasts of more than 4000 airports (METAR and TAF reports).

The available stations are represented by yellow and red dots on the map.

Hover mouse over dot to see the name of the station.

Then click to see weather observations and forecasts.

To change the map : click on the green buttons with a black cross to zoom in, on the green button with a dash to zoom out, or on the green arrows for adjacent maps.


METAR-TAF: